createdAt,value
2019-01-20T00:02:27.689Z,18.83
2019-01-20T00:07:30.353Z,19.40
2019-01-20T00:12:33.021Z,17.17
2019-01-20T00:17:55.211Z,17.50
2019-01-20T00:22:57.897Z,20.13
2019-01-20T00:33:36.777Z,14.43
2019-01-20T00:38:58.943Z,18.60
2019-01-20T00:44:01.622Z,18.43
2019-01-20T00:49:04.402Z,16.17
2019-01-20T00:54:26.598Z,25.77
2019-01-20T00:59:48.774Z,15.60
2019-01-20T01:05:04.032Z,17.37
2019-01-20T01:10:26.214Z,18.43
2019-01-20T01:15:28.888Z,20.73
2019-01-20T01:20:31.565Z,19.63
2019-01-20T01:25:34.231Z,24.93
2019-01-20T01:30:56.412Z,18.10
2019-01-20T01:36:18.689Z,17.60
2019-01-20T01:46:38.666Z,18.80
2019-01-20T01:52:00.837Z,18.77
2019-01-20T01:57:23.016Z,19.60
2019-01-20T02:02:45.200Z,17.13
2019-01-20T02:08:00.745Z,28.20
2019-01-20T02:13:22.983Z,17.37
2019-01-20T02:18:25.830Z,19.87
2019-01-20T02:23:48.001Z,16.60
2019-01-20T02:29:10.187Z,28.33
2019-01-20T02:34:32.367Z,22.50
2019-01-20T02:39:54.557Z,22.83
2019-01-20T02:45:16.841Z,15.90
2019-01-20T02:50:39.022Z,17.40
2019-01-20T02:55:41.696Z,19.90
2019-01-20T03:01:04.218Z,18.50
2019-01-20T03:06:19.235Z,21.37
2019-01-20T03:11:41.423Z,23.40
2019-01-20T03:17:03.600Z,23.90
2019-01-20T03:22:25.890Z,20.20
2019-01-20T03:27:28.581Z,25.57
2019-01-20T03:32:50.866Z,17.20
2019-01-20T03:38:13.170Z,17.90
2019-01-20T03:43:35.362Z,21.23
2019-01-20T03:48:57.556Z,27.43
2019-01-20T03:54:19.736Z,14.07
2019-01-20T03:59:22.396Z,33.30
2019-01-20T04:04:25.135Z,21.30
2019-01-20T04:09:47.339Z,20.43
2019-01-20T04:15:31.112Z,17.60
2019-01-20T04:20:53.282Z,24.00
2019-01-20T04:26:16.288Z,35.27
2019-01-20T04:31:38.473Z,18.53
2019-01-20T04:37:00.673Z,15.97
2019-01-20T04:42:28.963Z,14.77
2019-01-20T04:47:47.019Z,20.83
2019-01-20T04:53:09.221Z,31.53
2019-01-20T04:58:31.511Z,34.47
2019-01-20T05:03:53.739Z,28.97
2019-01-20T05:09:15.938Z,28.87
2019-01-20T05:14:38.113Z,28.53
2019-01-20T05:20:00.300Z,23.90
2019-01-20T05:25:24.271Z,20.90
2019-01-20T05:30:46.448Z,21.80
2019-01-20T05:36:08.651Z,24.40
2019-01-20T05:41:30.817Z,21.77
2019-01-20T05:46:52.998Z,22.47
2019-01-20T05:52:15.190Z,19.30
2019-01-20T05:57:37.476Z,22.60
2019-01-20T06:02:59.662Z,29.87
2019-01-20T06:08:15.256Z,22.00
2019-01-20T06:13:37.437Z,25.90
2019-01-20T06:18:59.621Z,22.50
2019-01-20T06:24:21.802Z,28.60
2019-01-20T06:29:43.967Z,27.70
2019-01-20T06:35:06.373Z,29.60
2019-01-20T06:40:28.548Z,32.93
2019-01-20T06:45:50.718Z,26.40
2019-01-20T06:51:12.897Z,21.00
2019-01-20T06:56:35.072Z,29.63
2019-01-20T07:01:57.271Z,26.13
2019-01-20T07:07:12.839Z,23.80
2019-01-20T07:12:35.024Z,18.80
2019-01-20T07:17:57.218Z,24.20
2019-01-20T07:23:19.452Z,19.80
2019-01-20T07:28:41.624Z,21.30
2019-01-20T07:33:44.294Z,20.47
2019-01-20T07:39:07.065Z,24.03
2019-01-20T07:44:29.247Z,21.83
2019-01-20T07:49:51.429Z,28.10
2019-01-20T07:55:13.615Z,18.77
2019-01-20T08:00:35.797Z,17.00
2019-01-20T08:05:50.956Z,33.07
2019-01-20T08:11:13.139Z,35.13
2019-01-20T08:16:35.319Z,20.67
2019-01-20T08:21:57.508Z,26.03
2019-01-20T08:27:19.695Z,30.70
2019-01-20T08:32:41.871Z,31.90
2019-01-20T08:38:04.172Z,37.03
2019-01-20T08:43:31.737Z,33.60
2019-01-20T08:48:51.630Z,32.37
2019-01-20T08:54:13.811Z,45.67
2019-01-20T08:59:35.993Z,31.37
2019-01-20T09:04:51.436Z,51.23
2019-01-20T09:10:17.600Z,32.53
2019-01-20T09:15:39.774Z,37.00
2019-01-20T09:21:01.958Z,30.57
2019-01-20T09:26:24.165Z,34.83
2019-01-20T09:31:46.330Z,33.80
2019-01-20T09:36:49.000Z,28.70
2019-01-20T09:42:11.170Z,44.30
2019-01-20T09:47:33.352Z,33.33
2019-01-20T09:52:55.626Z,41.97
2019-01-20T09:58:19.292Z,38.83
2019-01-20T10:03:41.900Z,37.10
2019-01-20T10:08:57.157Z,38.60
2019-01-20T10:14:19.326Z,33.03
2019-01-20T10:19:22.018Z,35.10
2019-01-20T10:24:44.199Z,33.07
2019-01-20T10:30:11.378Z,26.63
2019-01-20T10:35:53.164Z,38.00
2019-01-20T10:41:15.422Z,41.40
2019-01-20T10:46:37.746Z,36.17
2019-01-20T10:51:59.905Z,39.40
2019-01-20T10:57:22.082Z,40.07
2019-01-20T11:02:44.269Z,42.90
2019-01-20T11:08:01.174Z,34.07
2019-01-20T11:13:23.459Z,30.20
2019-01-20T11:18:45.637Z,37.13
2019-01-20T11:24:07.811Z,39.93
2019-01-20T11:29:29.989Z,40.50
2019-01-20T11:34:52.176Z,37.37
2019-01-20T11:40:14.369Z,39.70
2019-01-20T11:45:36.555Z,48.07
2019-01-20T11:50:39.235Z,32.87
2019-01-20T11:56:01.405Z,32.60
2019-01-20T12:01:23.586Z,39.27
2019-01-20T12:06:39.339Z,44.37
2019-01-20T12:12:01.516Z,43.07
2019-01-20T12:17:23.679Z,40.13
2019-01-20T12:22:45.854Z,38.67
2019-01-20T12:28:08.029Z,41.27
2019-01-20T12:33:30.212Z,31.10
2019-01-20T12:38:52.385Z,38.47
2019-01-20T12:49:23.910Z,34.87
2019-01-20T12:54:46.084Z,35.87
2019-01-20T13:00:10.145Z,43.20
2019-01-20T13:05:25.073Z,37.17
2019-01-20T13:10:27.760Z,46.70
2019-01-20T13:15:49.948Z,46.03
2019-01-20T13:21:12.135Z,42.40
2019-01-20T13:26:34.319Z,35.30
2019-01-20T13:31:56.514Z,50.07
2019-01-20T13:37:18.695Z,45.87
2019-01-20T13:42:40.908Z,44.27
2019-01-20T13:48:03.950Z,54.77
2019-01-20T13:53:26.129Z,48.00
2019-01-20T13:58:48.317Z,48.87
2019-01-20T14:04:10.514Z,46.90
2019-01-20T14:09:26.160Z,48.10
2019-01-20T14:14:53.904Z,55.83
2019-01-20T14:20:15.191Z,50.53
2019-01-20T14:25:37.398Z,50.27
2019-01-20T14:30:59.561Z,54.83
2019-01-20T14:36:21.760Z,45.10
2019-01-20T14:41:24.430Z,46.47
2019-01-20T14:46:46.611Z,48.50
2019-01-20T14:52:08.816Z,48.53
2019-01-20T14:57:31.008Z,53.80
2019-01-20T15:02:53.198Z,55.43
2019-01-20T15:08:08.125Z,55.90
2019-01-20T15:13:30.315Z,48.80
2019-01-20T15:18:52.507Z,62.93
2019-01-20T15:24:14.715Z,52.27
2019-01-20T15:29:36.887Z,52.50
2019-01-20T15:34:59.121Z,58.17
2019-01-20T15:40:21.469Z,61.90
2019-01-20T15:45:43.663Z,66.27
2019-01-20T15:51:05.844Z,58.17
2019-01-20T15:56:28.041Z,64.47
2019-01-20T16:01:50.236Z,62.00
2019-01-20T16:07:06.048Z,69.20
2019-01-20T16:12:28.231Z,66.47
2019-01-20T16:17:52.635Z,54.90
2019-01-20T16:23:14.823Z,56.43
2019-01-20T16:28:37.015Z,68.13
2019-01-20T16:33:59.199Z,63.70
2019-01-20T16:39:21.394Z,74.17
2019-01-20T16:44:43.579Z,55.87
2019-01-20T16:50:08.019Z,65.03
2019-01-20T16:55:30.208Z,68.03
2019-01-20T17:00:52.413Z,72.63
2019-01-20T17:06:07.810Z,66.70
2019-01-20T17:11:29.989Z,62.30
2019-01-20T17:16:52.168Z,60.67
2019-01-20T17:22:14.358Z,60.23
2019-01-20T17:27:36.548Z,52.73
2019-01-20T17:32:58.740Z,58.60
2019-01-20T17:38:20.928Z,54.07
2019-01-20T17:43:43.110Z,65.13
2019-01-20T17:49:05.301Z,49.30
2019-01-20T17:54:27.478Z,47.90
2019-01-20T17:59:49.666Z,53.33
2019-01-20T18:05:05.327Z,69.20
2019-01-20T18:10:27.510Z,54.27
2019-01-20T18:15:54.293Z,52.07
2019-01-20T18:21:13.783Z,60.30
2019-01-20T18:26:35.957Z,63.43
2019-01-20T18:31:58.147Z,59.70
2019-01-20T18:37:20.332Z,48.47
2019-01-20T18:42:42.563Z,50.80
2019-01-20T18:47:45.361Z,55.87
2019-01-20T18:53:07.567Z,44.87
2019-01-20T18:58:29.769Z,52.87
2019-01-20T19:03:32.484Z,51.13
2019-01-20T19:08:47.376Z,50.40
2019-01-20T19:14:09.716Z,49.37
2019-01-20T19:19:12.840Z,50.43
2019-01-20T19:24:15.802Z,52.13
2019-01-20T19:29:37.977Z,51.27
2019-01-20T19:35:00.226Z,49.53
2019-01-20T19:40:22.463Z,47.53
2019-01-20T19:45:44.660Z,47.73
2019-01-20T19:51:06.849Z,47.10
2019-01-20T19:56:29.037Z,43.80
2019-01-20T20:01:51.204Z,39.63
2019-01-20T20:06:54.039Z,41.30
2019-01-20T20:12:16.214Z,44.60
2019-01-20T20:17:38.398Z,44.57
2019-01-20T20:23:00.584Z,49.50
2019-01-20T20:28:22.744Z,52.23
2019-01-20T20:33:44.922Z,45.93
2019-01-20T20:38:47.660Z,48.33
2019-01-20T20:44:09.968Z,45.63
2019-01-20T20:49:12.669Z,45.83
2019-01-20T20:54:35.782Z,46.97
2019-01-20T20:59:58.982Z,34.07
2019-01-20T21:05:14.547Z,50.83
2019-01-20T21:10:36.725Z,37.77
2019-01-20T21:15:59.836Z,58.17
2019-01-20T21:21:26.555Z,49.47
2019-01-20T21:26:46.103Z,40.90
2019-01-20T21:32:08.273Z,50.40
2019-01-20T21:37:30.473Z,43.90
2019-01-20T21:42:52.794Z,61.10
2019-01-20T21:48:15.107Z,41.47
2019-01-20T21:53:37.308Z,48.60
2019-01-20T21:58:59.532Z,42.77
2019-01-20T22:04:21.723Z,43.03
2019-01-20T22:09:37.304Z,39.40
2019-01-20T22:14:59.506Z,45.43
2019-01-20T22:20:22.561Z,43.73
2019-01-20T22:25:44.746Z,47.50
2019-01-20T22:31:06.933Z,48.67
2019-01-20T22:36:29.110Z,39.47
2019-01-20T22:41:31.786Z,46.43
2019-01-20T22:47:00.033Z,43.43
2019-01-20T22:52:18.064Z,40.17
2019-01-20T22:57:40.375Z,38.20
2019-01-20T23:03:02.559Z,41.77
2019-01-20T23:08:18.238Z,40.80
2019-01-20T23:13:40.449Z,39.90
2019-01-20T23:18:43.116Z,42.27
2019-01-20T23:23:45.788Z,34.10
2019-01-20T23:28:48.552Z,42.93
2019-01-20T23:33:51.338Z,42.23
2019-01-20T23:39:13.510Z,35.60
2019-01-20T23:44:35.681Z,46.20
2019-01-20T23:49:57.864Z,33.33
2019-01-20T23:55:20.040Z,39.70
